sensor_id;sensor_type;location;lat;lon;timestamp;pressure;altitude;pressure_sealevel;temperature;humidity
37892;BME280;45797;47.466;9.486;2022-12-24T00:01:32;95471.88;;;14.21;64.72
37892;BME280;45797;47.466;9.486;2022-12-24T00:06:32;95467.03;;;14.17;64.90
37892;BME280;45797;47.466;9.486;2022-12-24T00:11:32;95477.03;;;14.13;64.92
37892;BME280;45797;47.466;9.486;2022-12-24T00:16:34;95493.91;;;14.11;64.70
37892;BME280;45797;47.466;9.486;2022-12-24T00:21:34;95490.72;;;14.07;64.65
37892;BME280;45797;47.466;9.486;2022-12-24T00:26:35;95494.50;;;14.05;64.95
37892;BME280;45797;47.466;9.486;2022-12-24T00:31:37;95516.78;;;14.00;64.98
37892;BME280;45797;47.466;9.486;2022-12-24T00:36:54;95534.97;;;13.94;64.98
37892;BME280;45797;47.466;9.486;2022-12-24T00:41:55;95559.50;;;13.94;64.88
37892;BME280;45797;47.466;9.486;2022-12-24T00:46:55;95552.13;;;13.98;64.82
37892;BME280;45797;47.466;9.486;2022-12-24T00:51:55;95550.34;;;13.98;65.13
37892;BME280;45797;47.466;9.486;2022-12-24T00:56:56;95559.75;;;14.01;64.76
37892;BME280;45797;47.466;9.486;2022-12-24T01:01:57;95541.59;;;13.98;64.95
37892;BME280;45797;47.466;9.486;2022-12-24T01:06:59;95546.03;;;13.97;65.02
37892;BME280;45797;47.466;9.486;2022-12-24T01:11:59;95546.03;;;13.97;64.71
37892;BME280;45797;47.466;9.486;2022-12-24T01:17:00;95552.97;;;13.98;64.72
37892;BME280;45797;47.466;9.486;2022-12-24T01:22:12;95570.03;;;13.94;64.32
37892;BME280;45797;47.466;9.486;2022-12-24T01:27:15;95586.38;;;13.98;64.38
37892;BME280;45797;47.466;9.486;2022-12-24T01:32:17;95588.31;;;13.96;64.41
37892;BME280;45797;47.466;9.486;2022-12-24T01:37:19;95598.44;;;14.00;64.18
37892;BME280;45797;47.466;9.486;2022-12-24T01:42:22;95610.50;;;14.03;64.28
37892;BME280;45797;47.466;9.486;2022-12-24T01:47:45;95612.88;;;14.06;63.95
37892;BME280;45797;47.466;9.486;2022-12-24T01:52:47;95621.59;;;14.07;63.86
37892;BME280;45797;47.466;9.486;2022-12-24T01:57:52;95614.25;;;14.10;63.74
37892;BME280;45797;47.466;9.486;2022-12-24T02:02:54;95618.69;;;14.10;63.60
37892;BME280;45797;47.466;9.486;2022-12-24T02:08:02;95625.59;;;14.11;63.39
37892;BME280;45797;47.466;9.486;2022-12-24T02:13:04;95621.31;;;14.10;63.55
37892;BME280;45797;47.466;9.486;2022-12-24T02:18:27;95633.25;;;14.04;63.39
37892;BME280;45797;47.466;9.486;2022-12-24T02:23:59;95635.44;;;13.99;63.72
37892;BME280;45797;47.466;9.486;2022-12-24T02:29:26;95639.88;;;13.98;63.49
37892;BME280;45797;47.466;9.486;2022-12-24T02:34:53;95639.72;;;14.00;63.44
37892;BME280;45797;47.466;9.486;2022-12-24T02:45:14;95649.16;;;13.93;63.03
37892;BME280;45797;47.466;9.486;2022-12-24T02:50:17;95646.09;;;13.88;63.13
37892;BME280;45797;47.466;9.486;2022-12-24T02:55:46;95649.53;;;13.79;63.28
37892;BME280;45797;47.466;9.486;2022-12-24T03:06:15;95674.00;;;13.69;63.10
37892;BME280;45797;47.466;9.486;2022-12-24T03:11:19;95674.28;;;13.66;62.88
37892;BME280;45797;47.466;9.486;2022-12-24T03:16:26;95669.03;;;13.66;63.04
37892;BME280;45797;47.466;9.486;2022-12-24T03:21:37;95667.72;;;13.61;63.25
37892;BME280;45797;47.466;9.486;2022-12-24T03:26:40;95659.97;;;13.59;62.81
37892;BME280;45797;47.466;9.486;2022-12-24T03:31:50;95674.81;;;13.60;62.63
37892;BME280;45797;47.466;9.486;2022-12-24T03:37:06;95664.78;;;13.54;62.60
37892;BME280;45797;47.466;9.486;2022-12-24T03:42:07;95680.47;;;13.56;62.47
37892;BME280;45797;47.466;9.486;2022-12-24T03:47:09;95672.31;;;13.59;62.07
37892;BME280;45797;47.466;9.486;2022-12-24T03:52:11;95710.63;;;13.52;62.56
37892;BME280;45797;47.466;9.486;2022-12-24T03:57:12;95685.22;;;13.41;62.63
37892;BME280;45797;47.466;9.486;2022-12-24T04:02:14;95698.19;;;13.33;62.65
37892;BME280;45797;47.466;9.486;2022-12-24T04:07:15;95712.13;;;13.24;63.00
37892;BME280;45797;47.466;9.486;2022-12-24T04:12:22;95688.13;;;13.17;62.90
37892;BME280;45797;47.466;9.486;2022-12-24T04:17:22;95696.53;;;13.11;63.29
37892;BME280;45797;47.466;9.486;2022-12-24T04:22:25;95709.22;;;13.06;62.82
37892;BME280;45797;47.466;9.486;2022-12-24T04:27:26;95718.81;;;12.96;62.73
37892;BME280;45797;47.466;9.486;2022-12-24T04:32:28;95700.94;;;12.90;62.96
37892;BME280;45797;47.466;9.486;2022-12-24T04:37:30;95693.56;;;12.83;63.13
37892;BME280;45797;47.466;9.486;2022-12-24T04:42:32;95709.25;;;12.74;63.09
37892;BME280;45797;47.466;9.486;2022-12-24T04:47:32;95738.91;;;12.65;63.28
37892;BME280;45797;47.466;9.486;2022-12-24T04:52:38;95740.97;;;12.61;63.15
37892;BME280;45797;47.466;9.486;2022-12-24T04:57:40;95747.41;;;12.57;63.11
37892;BME280;45797;47.466;9.486;2022-12-24T05:02:42;95786.09;;;12.55;62.79
37892;BME280;45797;47.466;9.486;2022-12-24T05:07:43;95796.88;;;12.41;63.13
37892;BME280;45797;47.466;9.486;2022-12-24T05:12:44;95787.22;;;12.19;63.88
37892;BME280;45797;47.466;9.486;2022-12-24T05:17:45;95811.59;;;11.98;64.35
37892;BME280;45797;47.466;9.486;2022-12-24T05:22:45;95831.25;;;11.82;65.08
37892;BME280;45797;47.466;9.486;2022-12-24T05:28:05;95844.19;;;11.72;65.18
37892;BME280;45797;47.466;9.486;2022-12-24T05:33:07;95832.59;;;11.63;65.67
37892;BME280;45797;47.466;9.486;2022-12-24T05:38:10;95838.78;;;11.51;65.58
37892;BME280;45797;47.466;9.486;2022-12-24T05:43:13;95832.31;;;11.44;65.86
37892;BME280;45797;47.466;9.486;2022-12-24T05:48:15;95843.38;;;11.36;66.13
37892;BME280;45797;47.466;9.486;2022-12-24T05:53:17;95849.22;;;11.29;66.67
37892;BME280;45797;47.466;9.486;2022-12-24T05:58:26;95877.97;;;11.18;66.23
37892;BME280;45797;47.466;9.486;2022-12-24T06:03:27;95844.69;;;11.07;66.89
37892;BME280;45797;47.466;9.486;2022-12-24T06:08:30;95831.09;;;11.02;67.24
37892;BME280;45797;47.466;9.486;2022-12-24T06:13:30;95840.47;;;10.93;67.46
37892;BME280;45797;47.466;9.486;2022-12-24T06:18:33;95849.28;;;10.92;67.59
37892;BME280;45797;47.466;9.486;2022-12-24T06:23:36;95867.00;;;10.88;67.63
37892;BME280;45797;47.466;9.486;2022-12-24T06:28:38;95867.81;;;10.89;67.52
37892;BME280;45797;47.466;9.486;2022-12-24T06:33:39;95884.50;;;10.88;67.58
37892;BME280;45797;47.466;9.486;2022-12-24T06:38:40;95894.88;;;10.90;67.91
37892;BME280;45797;47.466;9.486;2022-12-24T06:43:46;95901.06;;;10.88;67.98
37892;BME280;45797;47.466;9.486;2022-12-24T06:48:49;95908.53;;;10.82;67.74
37892;BME280;45797;47.466;9.486;2022-12-24T06:53:51;95907.06;;;10.78;67.88
37892;BME280;45797;47.466;9.486;2022-12-24T06:58:52;95910.63;;;10.77;68.03
37892;BME280;45797;47.466;9.486;2022-12-24T07:03:52;95914.44;;;10.73;67.94
37892;BME280;45797;47.466;9.486;2022-12-24T07:08:53;95903.13;;;10.72;68.06
37892;BME280;45797;47.466;9.486;2022-12-24T07:13:54;95899.03;;;10.68;68.09
37892;BME280;45797;47.466;9.486;2022-12-24T07:18:54;95904.50;;;10.65;68.29
37892;BME280;45797;47.466;9.486;2022-12-24T07:23:54;95899.34;;;10.64;67.88
37892;BME280;45797;47.466;9.486;2022-12-24T07:28:54;95903.88;;;10.62;68.41
37892;BME280;45797;47.466;9.486;2022-12-24T07:33:54;95899.56;;;10.61;68.49
37892;BME280;45797;47.466;9.486;2022-12-24T07:38:55;95903.34;;;10.56;68.52
37892;BME280;45797;47.466;9.486;2022-12-24T07:44:05;95935.84;;;10.54;68.56
37892;BME280;45797;47.466;9.486;2022-12-24T07:49:08;95939.41;;;10.53;68.72
37892;BME280;45797;47.466;9.486;2022-12-24T07:54:09;95952.69;;;10.50;68.64
37892;BME280;45797;47.466;9.486;2022-12-24T07:59:13;95951.75;;;10.51;68.49
37892;BME280;45797;47.466;9.486;2022-12-24T08:04:15;95944.22;;;10.46;68.59
37892;BME280;45797;47.466;9.486;2022-12-24T08:09:24;95942.53;;;10.45;68.55
37892;BME280;45797;47.466;9.486;2022-12-24T08:14:27;95930.50;;;10.43;68.92
37892;BME280;45797;47.466;9.486;2022-12-24T08:19:30;95925.06;;;10.46;68.97
37892;BME280;45797;47.466;9.486;2022-12-24T08:24:33;95933.84;;;10.45;68.77
37892;BME280;45797;47.466;9.486;2022-12-24T08:29:33;95948.00;;;10.42;68.78
37892;BME280;45797;47.466;9.486;2022-12-24T08:34:33;95944.63;;;10.40;68.76
37892;BME280;45797;47.466;9.486;2022-12-24T08:39:34;95954.16;;;10.41;69.14
37892;BME280;45797;47.466;9.486;2022-12-24T08:44:36;95957.41;;;10.45;68.80
37892;BME280;45797;47.466;9.486;2022-12-24T08:49:37;95955.53;;;10.47;68.45
37892;BME280;45797;47.466;9.486;2022-12-24T08:54:39;95951.75;;;10.51;69.09
37892;BME280;45797;47.466;9.486;2022-12-24T08:59:39;95962.03;;;10.54;68.07
37892;BME280;45797;47.466;9.486;2022-12-24T09:04:40;95979.06;;;10.59;68.41
37892;BME280;45797;47.466;9.486;2022-12-24T09:09:42;95981.28;;;10.66;68.30
37892;BME280;45797;47.466;9.486;2022-12-24T09:14:43;95977.41;;;10.71;68.02
37892;BME280;45797;47.466;9.486;2022-12-24T09:19:43;95981.47;;;10.75;67.88
37892;BME280;45797;47.466;9.486;2022-12-24T09:24:45;95990.72;;;10.81;67.77
37892;BME280;45797;47.466;9.486;2022-12-24T09:29:47;95993.22;;;10.82;67.30
37892;BME280;45797;47.466;9.486;2022-12-24T09:34:53;95998.84;;;10.89;67.67
37892;BME280;45797;47.466;9.486;2022-12-24T09:39:55;95996.75;;;10.94;67.22
37892;BME280;45797;47.466;9.486;2022-12-24T09:45:07;95996.41;;;10.99;67.51
37892;BME280;45797;47.466;9.486;2022-12-24T09:56:11;96004.28;;;11.11;67.06
37892;BME280;45797;47.466;9.486;2022-12-24T10:01:15;95993.97;;;11.21;67.07
37892;BME280;45797;47.466;9.486;2022-12-24T10:06:28;95996.38;;;11.24;67.12
37892;BME280;45797;47.466;9.486;2022-12-24T10:23:14;96010.72;;;11.31;67.13
37892;BME280;45797;47.466;9.486;2022-12-24T10:28:29;96020.38;;;11.31;67.08
37892;BME280;45797;47.466;9.486;2022-12-24T10:33:36;96011.56;;;11.32;67.20
37892;BME280;45797;47.466;9.486;2022-12-24T10:38:37;96010.28;;;11.37;67.08
37892;BME280;45797;47.466;9.486;2022-12-24T10:43:45;96007.94;;;11.45;66.87
37892;BME280;45797;47.466;9.486;2022-12-24T10:49:01;96012.63;;;11.53;66.49
37892;BME280;45797;47.466;9.486;2022-12-24T10:54:16;96008.94;;;11.56;66.65
37892;BME280;45797;47.466;9.486;2022-12-24T10:59:41;96010.63;;;11.57;66.69
37892;BME280;45797;47.466;9.486;2022-12-24T11:04:46;96000.88;;;11.59;66.52
37892;BME280;45797;47.466;9.486;2022-12-24T11:10:00;96021.84;;;11.59;66.66
37892;BME280;45797;47.466;9.486;2022-12-24T11:15:07;96010.53;;;11.58;67.04
37892;BME280;45797;47.466;9.486;2022-12-24T11:20:20;96007.78;;;11.60;67.04
37892;BME280;45797;47.466;9.486;2022-12-24T11:25:23;96003.47;;;11.59;67.00
37892;BME280;45797;47.466;9.486;2022-12-24T11:30:30;96012.06;;;11.61;66.65
37892;BME280;45797;47.466;9.486;2022-12-24T11:35:33;96004.94;;;11.63;66.90
37892;BME280;45797;47.466;9.486;2022-12-24T11:40:42;96004.44;;;11.58;67.13
37892;BME280;45797;47.466;9.486;2022-12-24T11:51:21;96015.72;;;11.47;67.12
37892;BME280;45797;47.466;9.486;2022-12-24T11:56:35;96012.50;;;11.55;66.98
37892;BME280;45797;47.466;9.486;2022-12-24T12:01:59;96002.31;;;11.63;67.19
37892;BME280;45797;47.466;9.486;2022-12-24T12:07:12;95998.53;;;11.67;67.18
37892;BME280;45797;47.466;9.486;2022-12-24T12:12:27;96007.22;;;11.67;66.73
37892;BME280;45797;47.466;9.486;2022-12-24T12:22:57;95993.56;;;11.75;66.43
37892;BME280;45797;47.466;9.486;2022-12-24T12:28:01;95993.63;;;11.86;66.38
37892;BME280;45797;47.466;9.486;2022-12-24T12:33:12;95995.78;;;11.92;66.31
37892;BME280;45797;47.466;9.486;2022-12-24T12:38:25;95988.66;;;11.94;66.56
37892;BME280;45797;47.466;9.486;2022-12-24T12:54:15;95973.59;;;11.85;66.75
37892;BME280;45797;47.466;9.486;2022-12-24T12:59:32;95957.22;;;11.82;66.81
37892;BME280;45797;47.466;9.486;2022-12-24T13:10:44;95950.34;;;11.68;66.86
37892;BME280;45797;47.466;9.486;2022-12-24T13:21:19;95949.28;;;11.70;66.87
37892;BME280;45797;47.466;9.486;2022-12-24T13:26:21;95950.47;;;11.66;67.23
37892;BME280;45797;47.466;9.486;2022-12-24T13:31:26;95946.75;;;11.69;66.90
37892;BME280;45797;47.466;9.486;2022-12-24T13:37:00;95957.94;;;11.60;66.96
37892;BME280;45797;47.466;9.486;2022-12-24T13:42:07;95958.16;;;11.57;67.16
37892;BME280;45797;47.466;9.486;2022-12-24T13:47:19;95950.75;;;11.51;67.27
37892;BME280;45797;47.466;9.486;2022-12-24T13:52:28;95959.03;;;11.44;67.67
37892;BME280;45797;47.466;9.486;2022-12-24T13:57:34;95975.31;;;11.37;68.22
37892;BME280;45797;47.466;9.486;2022-12-24T14:02:45;95971.16;;;11.34;67.80
37892;BME280;45797;47.466;9.486;2022-12-24T14:07:48;95987.34;;;11.28;67.59
37892;BME280;45797;47.466;9.486;2022-12-24T14:12:51;95997.09;;;11.26;68.04
37892;BME280;45797;47.466;9.486;2022-12-24T14:17:53;95987.06;;;11.20;68.12
37892;BME280;45797;47.466;9.486;2022-12-24T14:22:57;95992.50;;;11.17;68.22
37892;BME280;45797;47.466;9.486;2022-12-24T14:28:06;95984.13;;;11.12;68.33
37892;BME280;45797;47.466;9.486;2022-12-24T14:33:30;95964.53;;;11.05;68.57
37892;BME280;45797;47.466;9.486;2022-12-24T14:38:32;95959.19;;;11.06;68.59
37892;BME280;45797;47.466;9.486;2022-12-24T14:54:30;95978.94;;;10.99;68.62
37892;BME280;45797;47.466;9.486;2022-12-24T14:59:49;95978.19;;;10.97;68.32
37892;BME280;45797;47.466;9.486;2022-12-24T15:05:25;95984.19;;;10.86;68.35
37892;BME280;45797;47.466;9.486;2022-12-24T15:10:38;95973.94;;;10.83;68.76
37892;BME280;45797;47.466;9.486;2022-12-24T15:15:42;95971.31;;;10.83;68.72
37892;BME280;45797;47.466;9.486;2022-12-24T15:20:47;95961.31;;;10.88;68.86
37892;BME280;45797;47.466;9.486;2022-12-24T15:25:50;95964.47;;;10.94;68.70
37892;BME280;45797;47.466;9.486;2022-12-24T15:31:14;95960.91;;;10.95;68.44
37892;BME280;45797;47.466;9.486;2022-12-24T15:36:35;95948.31;;;11.00;68.17
37892;BME280;45797;47.466;9.486;2022-12-24T15:41:48;95947.16;;;11.04;68.28
37892;BME280;45797;47.466;9.486;2022-12-24T15:47:15;95951.44;;;11.05;68.48
37892;BME280;45797;47.466;9.486;2022-12-24T15:52:20;95943.81;;;11.02;68.92
37892;BME280;45797;47.466;9.486;2022-12-24T15:57:29;95955.13;;;11.02;68.90
37892;BME280;45797;47.466;9.486;2022-12-24T16:02:41;95959.06;;;11.08;68.63
37892;BME280;45797;47.466;9.486;2022-12-24T16:13:27;95980.78;;;11.10;68.76
37892;BME280;45797;47.466;9.486;2022-12-24T16:18:38;95985.19;;;11.09;68.75
37892;BME280;45797;47.466;9.486;2022-12-24T16:23:47;95992.22;;;11.09;68.83
37892;BME280;45797;47.466;9.486;2022-12-24T16:28:48;95993.16;;;11.08;69.27
37892;BME280;45797;47.466;9.486;2022-12-24T16:33:51;96001.84;;;11.08;68.64
37892;BME280;45797;47.466;9.486;2022-12-24T16:38:56;96007.00;;;11.10;69.08
37892;BME280;45797;47.466;9.486;2022-12-24T16:44:21;96011.72;;;11.05;69.41
37892;BME280;45797;47.466;9.486;2022-12-24T16:49:22;96014.34;;;11.05;69.51
37892;BME280;45797;47.466;9.486;2022-12-24T16:54:23;96024.72;;;11.06;69.51
37892;BME280;45797;47.466;9.486;2022-12-24T16:59:28;96014.94;;;11.08;69.72
37892;BME280;45797;47.466;9.486;2022-12-24T17:04:33;96007.09;;;11.08;69.56
37892;BME280;45797;47.466;9.486;2022-12-24T17:09:34;95987.06;;;11.07;69.92
37892;BME280;45797;47.466;9.486;2022-12-24T17:14:37;96003.63;;;11.08;70.02
37892;BME280;45797;47.466;9.486;2022-12-24T17:19:39;96011.41;;;11.09;70.10
37892;BME280;45797;47.466;9.486;2022-12-24T17:24:39;96015.59;;;11.12;70.29
37892;BME280;45797;47.466;9.486;2022-12-24T17:29:42;96013.47;;;11.17;70.17
37892;BME280;45797;47.466;9.486;2022-12-24T17:34:50;96030.91;;;11.18;69.97
37892;BME280;45797;47.466;9.486;2022-12-24T17:39:50;96045.56;;;11.21;70.33
37892;BME280;45797;47.466;9.486;2022-12-24T17:44:51;96050.69;;;11.22;70.35
37892;BME280;45797;47.466;9.486;2022-12-24T17:49:52;96055.78;;;11.00;70.64
37892;BME280;45797;47.466;9.486;2022-12-24T17:54:52;96061.84;;;10.87;71.05
37892;BME280;45797;47.466;9.486;2022-12-24T17:59:53;96065.00;;;10.93;70.87
37892;BME280;45797;47.466;9.486;2022-12-24T18:04:55;96081.03;;;11.01;70.69
37892;BME280;45797;47.466;9.486;2022-12-24T18:09:58;96085.13;;;11.05;70.51
37892;BME280;45797;47.466;9.486;2022-12-24T18:14:58;96073.91;;;11.03;70.43
37892;BME280;45797;47.466;9.486;2022-12-24T18:19:59;96068.44;;;11.06;70.62
37892;BME280;45797;47.466;9.486;2022-12-24T18:24:59;96059.63;;;11.07;70.87
37892;BME280;45797;47.466;9.486;2022-12-24T18:30:01;96069.09;;;11.09;70.52
37892;BME280;45797;47.466;9.486;2022-12-24T18:35:02;96068.31;;;11.07;70.72
37892;BME280;45797;47.466;9.486;2022-12-24T18:40:04;96074.50;;;11.06;70.73
37892;BME280;45797;47.466;9.486;2022-12-24T18:45:04;96061.53;;;11.05;71.16
37892;BME280;45797;47.466;9.486;2022-12-24T18:50:06;96043.50;;;11.00;71.64
37892;BME280;45797;47.466;9.486;2022-12-24T18:55:18;96053.56;;;10.94;71.19
37892;BME280;45797;47.466;9.486;2022-12-24T19:00:18;96049.47;;;10.90;71.75
37892;BME280;45797;47.466;9.486;2022-12-24T19:05:21;96045.81;;;10.92;71.58
37892;BME280;45797;47.466;9.486;2022-12-24T19:10:21;96046.66;;;10.80;72.01
37892;BME280;45797;47.466;9.486;2022-12-24T19:15:22;96047.50;;;10.80;71.96
37892;BME280;45797;47.466;9.486;2022-12-24T19:20:24;96047.41;;;10.82;72.35
37892;BME280;45797;47.466;9.486;2022-12-24T19:25:25;96049.81;;;10.85;72.08
37892;BME280;45797;47.466;9.486;2022-12-24T19:30:26;96029.69;;;10.85;71.88
37892;BME280;45797;47.466;9.486;2022-12-24T19:35:27;96034.91;;;10.85;71.78
37892;BME280;45797;47.466;9.486;2022-12-24T19:40:27;96029.69;;;10.85;71.80
37892;BME280;45797;47.466;9.486;2022-12-24T19:45:30;96041.41;;;10.80;72.32
37892;BME280;45797;47.466;9.486;2022-12-24T19:50:36;96040.06;;;10.74;72.30
37892;BME280;45797;47.466;9.486;2022-12-24T19:55:43;96053.56;;;10.68;72.76
37892;BME280;45797;47.466;9.486;2022-12-24T20:00:45;96054.63;;;10.66;72.87
37892;BME280;45797;47.466;9.486;2022-12-24T20:05:45;96064.28;;;10.65;72.95
37892;BME280;45797;47.466;9.486;2022-12-24T20:10:45;96065.53;;;10.72;72.67
37892;BME280;45797;47.466;9.486;2022-12-24T20:15:54;96065.44;;;10.74;72.57
37892;BME280;45797;47.466;9.486;2022-12-24T20:21:07;96054.84;;;10.75;72.63
37892;BME280;45797;47.466;9.486;2022-12-24T20:26:10;96063.22;;;10.80;72.64
37892;BME280;45797;47.466;9.486;2022-12-24T20:31:18;96050.75;;;10.84;72.40
37892;BME280;45797;47.466;9.486;2022-12-24T20:36:30;96045.63;;;10.82;72.38
37892;BME280;45797;47.466;9.486;2022-12-24T20:41:32;96054.22;;;10.84;72.29
37892;BME280;45797;47.466;9.486;2022-12-24T20:46:33;96050.63;;;10.85;72.88
37892;BME280;45797;47.466;9.486;2022-12-24T20:51:40;96049.59;;;10.88;72.38
37892;BME280;45797;47.466;9.486;2022-12-24T20:56:41;96035.53;;;10.89;72.39
37892;BME280;45797;47.466;9.486;2022-12-24T21:01:47;96043.38;;;10.89;72.68
37892;BME280;45797;47.466;9.486;2022-12-24T21:06:50;96050.22;;;10.92;72.71
37892;BME280;45797;47.466;9.486;2022-12-24T21:11:52;96052.97;;;10.90;72.82
37892;BME280;45797;47.466;9.486;2022-12-24T21:16:54;96059.03;;;10.91;72.13
37892;BME280;45797;47.466;9.486;2022-12-24T21:21:56;96069.59;;;10.89;72.98
37892;BME280;45797;47.466;9.486;2022-12-24T21:26:58;96066.97;;;10.89;72.85
37892;BME280;45797;47.466;9.486;2022-12-24T21:32:00;96068.75;;;10.88;73.28
37892;BME280;45797;47.466;9.486;2022-12-24T21:37:01;96060.91;;;10.88;72.70
37892;BME280;45797;47.466;9.486;2022-12-24T21:42:02;96055.88;;;10.85;72.82
37892;BME280;45797;47.466;9.486;2022-12-24T21:47:03;96056.72;;;10.86;73.11
37892;BME280;45797;47.466;9.486;2022-12-24T21:52:04;96053.97;;;10.87;73.04
37892;BME280;45797;47.466;9.486;2022-12-24T21:57:06;96062.78;;;10.86;72.67
37892;BME280;45797;47.466;9.486;2022-12-24T22:02:33;96062.78;;;10.86;72.93
37892;BME280;45797;47.466;9.486;2022-12-24T22:07:36;96064.91;;;10.81;73.30
37892;BME280;45797;47.466;9.486;2022-12-24T22:12:58;96058.00;;;10.80;73.13
37892;BME280;45797;47.466;9.486;2022-12-24T22:17:59;96073.72;;;10.80;73.02
37892;BME280;45797;47.466;9.486;2022-12-24T22:23:08;96059.25;;;10.75;73.31
37892;BME280;45797;47.466;9.486;2022-12-24T22:28:10;96073.06;;;10.77;73.42
37892;BME280;45797;47.466;9.486;2022-12-24T22:33:13;96065.53;;;10.85;73.47
37892;BME280;45797;47.466;9.486;2022-12-24T22:38:14;96058.50;;;10.85;73.13
37892;BME280;45797;47.466;9.486;2022-12-24T22:43:16;96053.97;;;10.87;72.86
37892;BME280;45797;47.466;9.486;2022-12-24T22:48:22;96049.59;;;10.88;73.06
37892;BME280;45797;47.466;9.486;2022-12-24T22:53:23;96059.66;;;10.81;73.42
37892;BME280;45797;47.466;9.486;2022-12-24T22:58:24;96056.72;;;10.86;73.14
37892;BME280;45797;47.466;9.486;2022-12-24T23:03:25;96054.63;;;10.91;73.46
37892;BME280;45797;47.466;9.486;2022-12-24T23:08:29;96057.75;;;10.96;73.26
37892;BME280;45797;47.466;9.486;2022-12-24T23:13:30;96048.34;;;10.94;73.21
37892;BME280;45797;47.466;9.486;2022-12-24T23:18:50;96042.03;;;10.96;73.27
37892;BME280;45797;47.466;9.486;2022-12-24T23:23:52;96035.84;;;10.97;73.29
37892;BME280;45797;47.466;9.486;2022-12-24T23:28:56;96039.41;;;10.96;73.22
37892;BME280;45797;47.466;9.486;2022-12-24T23:34:06;96038.69;;;10.94;73.23
37892;BME280;45797;47.466;9.486;2022-12-24T23:39:06;96037.97;;;10.92;73.49
37892;BME280;45797;47.466;9.486;2022-12-24T23:44:07;96025.47;;;10.96;73.56
37892;BME280;45797;47.466;9.486;2022-12-24T23:49:15;96021.91;;;10.97;73.25
37892;BME280;45797;47.466;9.486;2022-12-24T23:54:26;96016.66;;;10.97;73.37
37892;BME280;45797;47.466;9.486;2022-12-24T23:59:33;96021.19;;;10.95;73.50
